Avoca, Wisconsin
Current Conditions -  °F | °C
As of 1:56 PM on Tuesday 21 Oct 2014 (Local Time) from KLNR Reporting Station
Clear Clear  
Wind Chill: 55°   Ceiling: Unl
Heat Index: 55°   Visibility: 10mi
Dew Point: 37°   Wind: 9mph
Humidity: 51%   Direction: 120°ESE
Pressure: 30.22"   Gusts: NA
Location:  43.18°N, 90.32°W
Report Text: KLNR 211856Z AUTO 12008KT 10SM CLR 13/03 A3022 RMK AO2 SLP230 T01280028
Loading
Personal Weather Stations






























Interactive Weather Map
Tropical Storm Tracking
New forecast layout! Learn more

10-Day Weather Forecast

Advertisements
Track Severe Weather on mobile